sensor_id;sensor_type;location;lat;lon;timestamp;pressure;altitude;pressure_sealevel;temperature;humidity
68889;BME280;55930;47.412;8.790;2023-05-19T00:01:21;94822.97;;;9.52;100.00
68889;BME280;55930;47.412;8.790;2023-05-19T00:04:41;94822.97;;;9.43;100.00
68889;BME280;55930;47.412;8.790;2023-05-19T00:08:03;94824.16;;;9.42;100.00
68889;BME280;55930;47.412;8.790;2023-05-19T00:11:24;94825.19;;;9.36;100.00
68889;BME280;55930;47.412;8.790;2023-05-19T00:14:46;94818.72;;;9.37;100.00
68889;BME280;55930;47.412;8.790;2023-05-19T00:22:23;94817.25;;;9.36;100.00
68889;BME280;55930;47.412;8.790;2023-05-19T00:25:43;94818.72;;;9.37;100.00
68889;BME280;55930;47.412;8.790;2023-05-19T00:29:04;94811.66;;;9.43;100.00
68889;BME280;55930;47.412;8.790;2023-05-19T00:32:28;94816.50;;;9.35;100.00
68889;BME280;55930;47.412;8.790;2023-05-19T00:35:51;94814.75;;;9.32;100.00
68889;BME280;55930;47.412;8.790;2023-05-19T00:39:14;94810.03;;;9.36;100.00
68889;BME280;55930;47.412;8.790;2023-05-19T00:42:34;94796.81;;;9.36;100.00
68889;BME280;55930;47.412;8.790;2023-05-19T00:45:55;94801.22;;;9.39;100.00
68889;BME280;55930;47.412;8.790;2023-05-19T00:49:18;94800.63;;;9.35;100.00
68889;BME280;55930;47.412;8.790;2023-05-19T00:52:38;94806.41;;;9.25;100.00
68889;BME280;55930;47.412;8.790;2023-05-19T00:56:02;94788.28;;;9.32;100.00
68889;BME280;55930;47.412;8.790;2023-05-19T00:59:22;94795.19;;;9.30;100.00
68889;BME280;55930;47.412;8.790;2023-05-19T01:02:43;94782.56;;;9.34;100.00
68889;BME280;55930;47.412;8.790;2023-05-19T01:06:03;94784.19;;;9.31;100.00
68889;BME280;55930;47.412;8.790;2023-05-19T01:09:24;94778.88;;;9.22;100.00
68889;BME280;55930;47.412;8.790;2023-05-19T01:12:44;94777.09;;;9.28;100.00
68889;BME280;55930;47.412;8.790;2023-05-19T01:19:47;94776.53;;;9.24;100.00
68889;BME280;55930;47.412;8.790;2023-05-19T01:23:33;94770.34;;;9.27;100.00
68889;BME280;55930;47.412;8.790;2023-05-19T01:30:41;94777.44;;;9.12;100.00
68889;BME280;55930;47.412;8.790;2023-05-19T01:34:02;94782.88;;;9.08;100.00
68889;BME280;55930;47.412;8.790;2023-05-19T01:37:24;94786.25;;;9.09;100.00
68889;BME280;55930;47.412;8.790;2023-05-19T01:40:47;94787.00;;;9.09;100.00
68889;BME280;55930;47.412;8.790;2023-05-19T01:44:08;94790.81;;;9.17;100.00
68889;BME280;55930;47.412;8.790;2023-05-19T01:47:29;94786.53;;;9.20;100.00
68889;BME280;55930;47.412;8.790;2023-05-19T01:50:50;94788.88;;;9.18;100.00
68889;BME280;55930;47.412;8.790;2023-05-19T01:54:10;94790.09;;;9.08;100.00
68889;BME280;55930;47.412;8.790;2023-05-19T02:04:43;94793.00;;;9.10;100.00
68889;BME280;55930;47.412;8.790;2023-05-19T02:08:13;94792.72;;;9.08;100.00
68889;BME280;55930;47.412;8.790;2023-05-19T02:11:46;94802.16;;;9.09;100.00
68889;BME280;55930;47.412;8.790;2023-05-19T02:15:15;94794.47;;;9.11;100.00
68889;BME280;55930;47.412;8.790;2023-05-19T02:18:36;94795.50;;;9.04;100.00
68889;BME280;55930;47.412;8.790;2023-05-19T02:21:57;94790.97;;;9.05;100.00
68889;BME280;55930;47.412;8.790;2023-05-19T02:25:18;94777.91;;;9.01;100.00
68889;BME280;55930;47.412;8.790;2023-05-19T02:28:38;94782.59;;;8.97;100.00
68889;BME280;55930;47.412;8.790;2023-05-19T02:32:00;94788.75;;;8.94;100.00
68889;BME280;55930;47.412;8.790;2023-05-19T02:35:21;94784.78;;;8.90;100.00
68889;BME280;55930;47.412;8.790;2023-05-19T02:38:41;94777.16;;;8.82;100.00
68889;BME280;55930;47.412;8.790;2023-05-19T02:42:01;94766.28;;;8.80;100.00
68889;BME280;55930;47.412;8.790;2023-05-19T02:45:23;94773.63;;;8.67;100.00
68889;BME280;55930;47.412;8.790;2023-05-19T02:48:43;94762.44;;;8.72;100.00
68889;BME280;55930;47.412;8.790;2023-05-19T02:52:05;94759.81;;;8.63;100.00
68889;BME280;55930;47.412;8.790;2023-05-19T02:55:27;94761.41;;;8.52;100.00
68889;BME280;55930;47.412;8.790;2023-05-19T02:58:49;94765.69;;;8.58;100.00
68889;BME280;55930;47.412;8.790;2023-05-19T03:02:11;94767.44;;;8.52;100.00
68889;BME280;55930;47.412;8.790;2023-05-19T03:05:32;94768.91;;;8.53;100.00
68889;BME280;55930;47.412;8.790;2023-05-19T03:08:52;94768.91;;;8.53;100.00
68889;BME280;55930;47.412;8.790;2023-05-19T03:12:12;94765.97;;;8.42;100.00
68889;BME280;55930;47.412;8.790;2023-05-19T03:15:33;94763.91;;;8.37;100.00
68889;BME280;55930;47.412;8.790;2023-05-19T03:18:54;94759.47;;;8.34;100.00
68889;BME280;55930;47.412;8.790;2023-05-19T03:22:15;94759.63;;;8.39;100.00
68889;BME280;55930;47.412;8.790;2023-05-19T03:25:35;94766.53;;;8.46;100.00
68889;BME280;55930;47.412;8.790;2023-05-19T03:28:55;94769.78;;;8.50;100.00
68889;BME280;55930;47.412;8.790;2023-05-19T03:32:16;94763.75;;;8.50;100.00
68889;BME280;55930;47.412;8.790;2023-05-19T03:35:36;94771.97;;;8.33;100.00
68889;BME280;55930;47.412;8.790;2023-05-19T03:38:57;94774.47;;;8.37;100.00
68889;BME280;55930;47.412;8.790;2023-05-19T03:42:18;94774.16;;;8.35;100.00
68889;BME280;55930;47.412;8.790;2023-05-19T03:45:38;94772.72;;;8.43;100.00
68889;BME280;55930;47.412;8.790;2023-05-19T03:48:59;94771.09;;;8.36;100.00
68889;BME280;55930;47.412;8.790;2023-05-19T03:52:19;94773.75;;;8.36;100.00
68889;BME280;55930;47.412;8.790;2023-05-19T03:55:39;94777.84;;;8.37;100.00
68889;BME280;55930;47.412;8.790;2023-05-19T03:59:00;94775.06;;;8.50;100.00
68889;BME280;55930;47.412;8.790;2023-05-19T04:02:20;94768.47;;;8.36;100.00
68889;BME280;55930;47.412;8.790;2023-05-19T04:05:43;94773.31;;;8.38;100.00
68889;BME280;55930;47.412;8.790;2023-05-19T04:09:11;94776.22;;;8.40;100.00
68889;BME280;55930;47.412;8.790;2023-05-19T04:12:35;94770.81;;;8.53;100.00
68889;BME280;55930;47.412;8.790;2023-05-19T04:15:56;94769.91;;;8.47;100.00
68889;BME280;55930;47.412;8.790;2023-05-19T04:19:17;94775.81;;;8.51;100.00
68889;BME280;55930;47.412;8.790;2023-05-19T04:22:37;94775.09;;;8.59;100.00
68889;BME280;55930;47.412;8.790;2023-05-19T04:25:58;94777.59;;;8.54;100.00
68889;BME280;55930;47.412;8.790;2023-05-19T04:29:20;94781.84;;;8.60;100.00
68889;BME280;55930;47.412;8.790;2023-05-19T04:32:42;94784.34;;;8.73;100.00
68889;BME280;55930;47.412;8.790;2023-05-19T04:36:03;94784.78;;;8.62;100.00
68889;BME280;55930;47.412;8.790;2023-05-19T04:39:29;94785.97;;;8.61;100.00
68889;BME280;55930;47.412;8.790;2023-05-19T04:42:50;94786.72;;;8.62;100.00
68889;BME280;55930;47.412;8.790;2023-05-19T04:46:11;94793.00;;;8.55;100.00
68889;BME280;55930;47.412;8.790;2023-05-19T04:49:32;94789.63;;;8.73;100.00
68889;BME280;55930;47.412;8.790;2023-05-19T04:52:57;94780.84;;;8.76;100.00
68889;BME280;55930;47.412;8.790;2023-05-19T04:56:18;94788.59;;;8.79;100.00
68889;BME280;55930;47.412;8.790;2023-05-19T04:59:38;94790.81;;;8.90;100.00
68889;BME280;55930;47.412;8.790;2023-05-19T05:02:59;94790.38;;;8.82;100.00
68889;BME280;55930;47.412;8.790;2023-05-19T05:06:20;94798.47;;;8.70;100.00
68889;BME280;55930;47.412;8.790;2023-05-19T05:09:41;94795.81;;;8.79;100.00
68889;BME280;55930;47.412;8.790;2023-05-19T05:13:02;94795.66;;;8.82;100.00
68889;BME280;55930;47.412;8.790;2023-05-19T05:16:23;94790.81;;;8.81;100.00
68889;BME280;55930;47.412;8.790;2023-05-19T05:19:43;94785.09;;;8.82;100.00
68889;BME280;55930;47.412;8.790;2023-05-19T05:23:04;94796.25;;;8.68;100.00
68889;BME280;55930;47.412;8.790;2023-05-19T05:26:27;94795.06;;;8.88;100.00
68889;BME280;55930;47.412;8.790;2023-05-19T05:29:49;94797.16;;;8.83;100.00
68889;BME280;55930;47.412;8.790;2023-05-19T05:33:09;94802.72;;;8.76;100.00
68889;BME280;55930;47.412;8.790;2023-05-19T05:36:30;94791.41;;;8.85;100.00
68889;BME280;55930;47.412;8.790;2023-05-19T05:39:54;94790.69;;;8.85;100.00
68889;BME280;55930;47.412;8.790;2023-05-19T05:43:14;94796.41;;;9.01;100.00
68889;BME280;55930;47.412;8.790;2023-05-19T05:46:35;94792.16;;;8.76;100.00
68889;BME280;55930;47.412;8.790;2023-05-19T05:49:55;94788.31;;;9.14;100.00
68889;BME280;55930;47.412;8.790;2023-05-19T05:53:20;94790.63;;;9.30;100.00
68889;BME280;55930;47.412;8.790;2023-05-19T05:56:40;94786.53;;;9.11;100.00
68889;BME280;55930;47.412;8.790;2023-05-19T06:00:02;94785.53;;;9.17;100.00
68889;BME280;55930;47.412;8.790;2023-05-19T06:03:26;94785.94;;;9.25;100.00
68889;BME280;55930;47.412;8.790;2023-05-19T06:06:46;94799.03;;;9.29;100.00
68889;BME280;55930;47.412;8.790;2023-05-19T06:10:10;94792.53;;;9.39;100.00
68889;BME280;55930;47.412;8.790;2023-05-19T06:13:30;94787.88;;;9.25;100.00
68889;BME280;55930;47.412;8.790;2023-05-19T06:16:51;94785.34;;;9.21;100.00
68889;BME280;55930;47.412;8.790;2023-05-19T06:20:12;94784.47;;;9.33;100.00
68889;BME280;55930;47.412;8.790;2023-05-19T06:23:33;94778.16;;;9.21;100.00
68889;BME280;55930;47.412;8.790;2023-05-19T06:26:53;94785.63;;;9.41;100.00
68889;BME280;55930;47.412;8.790;2023-05-19T06:30:13;94795.19;;;9.30;100.00
68889;BME280;55930;47.412;8.790;2023-05-19T06:33:34;94785.63;;;9.41;100.00
68889;BME280;55930;47.412;8.790;2023-05-19T06:36:54;94789.25;;;9.62;100.00
68889;BME280;55930;47.412;8.790;2023-05-19T06:40:17;94794.59;;;9.95;100.00
68889;BME280;55930;47.412;8.790;2023-05-19T06:43:38;94786.81;;;9.82;100.00
68889;BME280;55930;47.412;8.790;2023-05-19T06:46:58;94801.16;;;9.67;100.00
68889;BME280;55930;47.412;8.790;2023-05-19T06:50:19;94797.63;;;9.70;100.00
68889;BME280;55930;47.412;8.790;2023-05-19T06:53:39;94796.78;;;9.54;100.00
68889;BME280;55930;47.412;8.790;2023-05-19T06:57:00;94802.94;;;9.60;100.00
68889;BME280;55930;47.412;8.790;2023-05-19T07:00:20;94800.53;;;9.81;100.00
68889;BME280;55930;47.412;8.790;2023-05-19T07:03:40;94805.94;;;9.86;100.00
68889;BME280;55930;47.412;8.790;2023-05-19T07:07:01;94808.56;;;10.38;100.00
68889;BME280;55930;47.412;8.790;2023-05-19T07:10:22;94805.56;;;10.21;100.00
68889;BME280;55930;47.412;8.790;2023-05-19T07:13:42;94807.06;;;10.04;100.00
68889;BME280;55930;47.412;8.790;2023-05-19T07:17:03;94810.13;;;9.69;100.00
68889;BME280;55930;47.412;8.790;2023-05-19T07:20:23;94798.16;;;9.83;100.00
68889;BME280;55930;47.412;8.790;2023-05-19T07:23:44;94796.63;;;10.33;100.00
68889;BME280;55930;47.412;8.790;2023-05-19T07:27:04;94803.47;;;10.25;100.00
68889;BME280;55930;47.412;8.790;2023-05-19T07:30:26;94801.22;;;10.32;100.00
68889;BME280;55930;47.412;8.790;2023-05-19T07:33:47;94806.69;;;10.29;100.00
68889;BME280;55930;47.412;8.790;2023-05-19T07:37:07;94805.66;;;10.26;100.00
68889;BME280;55930;47.412;8.790;2023-05-19T07:40:27;94805.63;;;10.59;100.00
68889;BME280;55930;47.412;8.790;2023-05-19T07:43:48;94803.19;;;10.47;100.00
68889;BME280;55930;47.412;8.790;2023-05-19T07:47:11;94800.66;;;10.28;100.00
68889;BME280;55930;47.412;8.790;2023-05-19T07:50:31;94799.25;;;10.42;100.00
68889;BME280;55930;47.412;8.790;2023-05-19T07:53:52;94803.91;;;10.71;100.00
68889;BME280;55930;47.412;8.790;2023-05-19T07:57:13;94816.84;;;10.78;100.00
68889;BME280;55930;47.412;8.790;2023-05-19T08:00:33;94808.50;;;10.70;99.99
68889;BME280;55930;47.412;8.790;2023-05-19T08:03:54;94808.09;;;10.63;100.00
68889;BME280;55930;47.412;8.790;2023-05-19T08:07:14;94800.72;;;10.43;100.00
68889;BME280;55930;47.412;8.790;2023-05-19T08:10:35;94807.88;;;10.52;100.00
68889;BME280;55930;47.412;8.790;2023-05-19T08:13:55;94810.75;;;10.39;100.00
68889;BME280;55930;47.412;8.790;2023-05-19T08:17:16;94800.53;;;10.47;100.00
68889;BME280;55930;47.412;8.790;2023-05-19T08:20:36;94802.00;;;10.24;100.00
68889;BME280;55930;47.412;8.790;2023-05-19T08:23:56;94803.31;;;10.52;100.00
68889;BME280;55930;47.412;8.790;2023-05-19T08:27:17;94802.19;;;10.68;100.00
68889;BME280;55930;47.412;8.790;2023-05-19T08:30:37;94795.63;;;11.31;98.68
68889;BME280;55930;47.412;8.790;2023-05-19T08:33:58;94795.16;;;10.80;100.00
68889;BME280;55930;47.412;8.790;2023-05-19T08:37:18;94788.72;;;10.95;98.87
68889;BME280;55930;47.412;8.790;2023-05-19T08:40:45;94781.63;;;11.16;98.31
68889;BME280;55930;47.412;8.790;2023-05-19T08:44:05;94790.53;;;10.89;99.04
68889;BME280;55930;47.412;8.790;2023-05-19T08:47:27;94776.94;;;11.70;96.69
68889;BME280;55930;47.412;8.790;2023-05-19T08:50:53;94784.66;;;11.24;94.59
68889;BME280;55930;47.412;8.790;2023-05-19T08:54:15;94780.25;;;11.35;97.32
68889;BME280;55930;47.412;8.790;2023-05-19T08:57:37;94789.56;;;10.78;99.31
68889;BME280;55930;47.412;8.790;2023-05-19T09:00:58;94790.50;;;10.74;99.68
68889;BME280;55930;47.412;8.790;2023-05-19T09:04:23;94787.72;;;10.93;99.08
68889;BME280;55930;47.412;8.790;2023-05-19T09:07:47;94782.69;;;10.71;99.79
68889;BME280;55930;47.412;8.790;2023-05-19T09:11:08;94786.38;;;11.71;95.26
68889;BME280;55930;47.412;8.790;2023-05-19T09:14:29;94784.38;;;11.51;96.16
68889;BME280;55930;47.412;8.790;2023-05-19T09:17:49;94778.50;;;11.62;96.48
68889;BME280;55930;47.412;8.790;2023-05-19T09:21:12;94776.03;;;11.29;96.92
68889;BME280;55930;47.412;8.790;2023-05-19T09:24:33;94783.00;;;11.85;95.88
68889;BME280;55930;47.412;8.790;2023-05-19T09:27:53;94781.31;;;12.02;94.46
68889;BME280;55930;47.412;8.790;2023-05-19T09:31:14;94775.94;;;11.97;94.60
68889;BME280;55930;47.412;8.790;2023-05-19T09:34:40;94782.72;;;11.83;93.33
68889;BME280;55930;47.412;8.790;2023-05-19T09:38:01;94776.53;;;12.21;93.00
68889;BME280;55930;47.412;8.790;2023-05-19T09:41:21;94775.97;;;12.17;95.26
68889;BME280;55930;47.412;8.790;2023-05-19T09:44:42;94775.19;;;12.31;90.29
68889;BME280;55930;47.412;8.790;2023-05-19T09:48:03;94777.31;;;11.92;94.88
68889;BME280;55930;47.412;8.790;2023-05-19T09:51:24;94778.34;;;12.50;92.64
68889;BME280;55930;47.412;8.790;2023-05-19T09:54:47;94781.06;;;12.35;92.12
68889;BME280;55930;47.412;8.790;2023-05-19T09:58:15;94780.31;;;12.00;94.79
68889;BME280;55930;47.412;8.790;2023-05-19T10:01:37;94785.59;;;12.70;90.40
68889;BME280;55930;47.412;8.790;2023-05-19T10:05:01;94787.19;;;12.41;91.36
68889;BME280;55930;47.412;8.790;2023-05-19T10:08:22;94778.47;;;12.41;91.24
68889;BME280;55930;47.412;8.790;2023-05-19T10:11:45;94785.59;;;12.14;91.73
68889;BME280;55930;47.412;8.790;2023-05-19T10:15:15;94781.81;;;11.57;93.80
68889;BME280;55930;47.412;8.790;2023-05-19T10:18:36;94776.75;;;11.73;92.48
68889;BME280;55930;47.412;8.790;2023-05-19T10:21:57;94779.25;;;11.77;93.73
68889;BME280;55930;47.412;8.790;2023-05-19T10:25:17;94777.03;;;12.05;90.12
68889;BME280;55930;47.412;8.790;2023-05-19T10:28:41;94776.19;;;12.54;90.08
68889;BME280;55930;47.412;8.790;2023-05-19T10:32:07;94771.28;;;12.47;90.40
68889;BME280;55930;47.412;8.790;2023-05-19T10:35:47;94764.56;;;12.72;89.71
68889;BME280;55930;47.412;8.790;2023-05-19T10:39:21;94762.78;;;12.83;89.59
68889;BME280;55930;47.412;8.790;2023-05-19T10:46:31;94773.28;;;12.92;87.44
68889;BME280;55930;47.412;8.790;2023-05-19T10:49:54;94781.00;;;12.70;87.50
68889;BME280;55930;47.412;8.790;2023-05-19T10:53:16;94783.69;;;12.15;89.84
68889;BME280;55930;47.412;8.790;2023-05-19T10:56:43;94776.53;;;12.41;91.66
68889;BME280;55930;47.412;8.790;2023-05-19T11:00:29;94782.66;;;12.88;89.85
68889;BME280;55930;47.412;8.790;2023-05-19T11:03:54;94777.34;;;12.68;87.29
68889;BME280;55930;47.412;8.790;2023-05-19T11:07:17;94778.06;;;13.09;88.06
68889;BME280;55930;47.412;8.790;2023-05-19T11:10:38;94764.91;;;13.83;84.58
68889;BME280;55930;47.412;8.790;2023-05-19T11:14:04;94760.22;;;14.46;81.98
68889;BME280;55930;47.412;8.790;2023-05-19T11:17:24;94762.00;;;14.60;77.95
68889;BME280;55930;47.412;8.790;2023-05-19T11:20:54;94761.59;;;14.84;79.90
68889;BME280;55930;47.412;8.790;2023-05-19T11:27:56;94753.50;;;15.71;76.24
68889;BME280;55930;47.412;8.790;2023-05-19T11:31:18;94752.94;;;15.17;76.85
68889;BME280;55930;47.412;8.790;2023-05-19T11:34:41;94748.88;;;15.88;73.48
68889;BME280;55930;47.412;8.790;2023-05-19T11:38:02;94752.25;;;15.50;73.66
68889;BME280;55930;47.412;8.790;2023-05-19T11:41:24;94745.72;;;15.56;72.33
68889;BME280;55930;47.412;8.790;2023-05-19T11:44:53;94743.47;;;16.27;68.87
68889;BME280;55930;47.412;8.790;2023-05-19T11:48:14;94735.38;;;16.38;69.24
68889;BME280;55930;47.412;8.790;2023-05-19T11:51:35;94737.81;;;17.46;65.57
68889;BME280;55930;47.412;8.790;2023-05-19T11:54:59;94738.34;;;16.35;66.00
68889;BME280;55930;47.412;8.790;2023-05-19T11:58:24;94720.53;;;16.37;70.41
68889;BME280;55930;47.412;8.790;2023-05-19T12:01:45;94736.00;;;17.90;65.17
68889;BME280;55930;47.412;8.790;2023-05-19T12:05:06;94733.97;;;16.95;66.71
68889;BME280;55930;47.412;8.790;2023-05-19T12:08:28;94725.19;;;16.95;64.69
68889;BME280;55930;47.412;8.790;2023-05-19T12:11:50;94736.78;;;16.56;66.76
68889;BME280;55930;47.412;8.790;2023-05-19T12:15:11;94733.56;;;17.62;64.14
68889;BME280;55930;47.412;8.790;2023-05-19T12:18:36;94743.63;;;17.80;63.50
68889;BME280;55930;47.412;8.790;2023-05-19T12:21:58;94741.34;;;16.78;68.08
68889;BME280;55930;47.412;8.790;2023-05-19T12:25:19;94734.22;;;16.17;66.54
68889;BME280;55930;47.412;8.790;2023-05-19T12:28:39;94739.63;;;15.39;71.16
68889;BME280;55930;47.412;8.790;2023-05-19T12:32:00;94740.81;;;16.16;69.03
68889;BME280;55930;47.412;8.790;2023-05-19T12:35:25;94731.44;;;16.62;66.86
68889;BME280;55930;47.412;8.790;2023-05-19T12:38:52;94731.44;;;17.14;67.90
68889;BME280;55930;47.412;8.790;2023-05-19T12:42:14;94728.97;;;16.75;65.76
68889;BME280;55930;47.412;8.790;2023-05-19T12:45:35;94730.97;;;16.52;68.47
68889;BME280;55930;47.412;8.790;2023-05-19T12:48:57;94717.28;;;17.84;64.16
68889;BME280;55930;47.412;8.790;2023-05-19T12:52:19;94711.97;;;17.79;61.23
68889;BME280;55930;47.412;8.790;2023-05-19T12:55:43;94708.34;;;18.68;61.75
68889;BME280;55930;47.412;8.790;2023-05-19T12:59:04;94704.13;;;17.81;61.43
68889;BME280;55930;47.412;8.790;2023-05-19T13:02:24;94705.03;;;18.13;62.14
68889;BME280;55930;47.412;8.790;2023-05-19T13:05:47;94708.47;;;17.18;64.12
68889;BME280;55930;47.412;8.790;2023-05-19T13:09:08;94695.13;;;15.81;70.07
68889;BME280;55930;47.412;8.790;2023-05-19T13:12:29;94702.13;;;16.12;69.98
68889;BME280;55930;47.412;8.790;2023-05-19T13:15:50;94703.81;;;16.20;71.43
68889;BME280;55930;47.412;8.790;2023-05-19T13:19:13;94706.06;;;15.94;72.36
68889;BME280;55930;47.412;8.790;2023-05-19T13:22:33;94704.81;;;16.06;71.51
68889;BME280;55930;47.412;8.790;2023-05-19T13:25:53;94704.38;;;15.74;72.34
68889;BME280;55930;47.412;8.790;2023-05-19T13:29:14;94704.72;;;16.39;71.61
68889;BME280;55930;47.412;8.790;2023-05-19T13:32:34;94702.78;;;16.29;69.07
68889;BME280;55930;47.412;8.790;2023-05-19T13:35:55;94704.56;;;16.78;67.45
68889;BME280;55930;47.412;8.790;2023-05-19T13:39:15;94700.63;;;17.62;66.17
68889;BME280;55930;47.412;8.790;2023-05-19T13:42:36;94705.69;;;17.71;64.27
68889;BME280;55930;47.412;8.790;2023-05-19T13:45:56;94696.25;;;16.88;66.75
68889;BME280;55930;47.412;8.790;2023-05-19T13:49:17;94698.38;;;16.37;68.17
68889;BME280;55930;47.412;8.790;2023-05-19T13:52:37;94699.00;;;16.71;66.87
68889;BME280;55930;47.412;8.790;2023-05-19T13:55:58;94699.94;;;17.20;65.14
68889;BME280;55930;47.412;8.790;2023-05-19T13:59:19;94697.75;;;16.08;67.60
68889;BME280;55930;47.412;8.790;2023-05-19T14:02:40;94694.94;;;15.56;68.41
68889;BME280;55930;47.412;8.790;2023-05-19T14:06:01;94701.66;;;15.07;71.09
68889;BME280;55930;47.412;8.790;2023-05-19T14:09:25;94693.16;;;15.25;70.53
68889;BME280;55930;47.412;8.790;2023-05-19T14:12:45;94697.16;;;16.43;68.16
68889;BME280;55930;47.412;8.790;2023-05-19T14:16:05;94704.38;;;15.24;72.58
68889;BME280;55930;47.412;8.790;2023-05-19T14:19:27;94704.03;;;14.77;73.03
68889;BME280;55930;47.412;8.790;2023-05-19T14:22:49;94702.16;;;15.17;71.51
68889;BME280;55930;47.412;8.790;2023-05-19T14:26:12;94707.50;;;15.28;71.74
68889;BME280;55930;47.412;8.790;2023-05-19T14:29:32;94702.69;;;15.54;69.88
68889;BME280;55930;47.412;8.790;2023-05-19T14:32:53;94698.78;;;15.39;71.29
68889;BME280;55930;47.412;8.790;2023-05-19T14:36:13;94700.47;;;15.19;73.83
68889;BME280;55930;47.412;8.790;2023-05-19T14:39:34;94700.22;;;15.12;73.97
68889;BME280;55930;47.412;8.790;2023-05-19T14:42:54;94700.16;;;14.19;75.46
68889;BME280;55930;47.412;8.790;2023-05-19T14:46:14;94694.53;;;14.71;74.88
68889;BME280;55930;47.412;8.790;2023-05-19T14:49:35;94696.41;;;14.48;76.81
68889;BME280;55930;47.412;8.790;2023-05-19T14:52:59;94690.28;;;14.36;76.07
68889;BME280;55930;47.412;8.790;2023-05-19T14:56:19;94691.31;;;14.44;75.90
68889;BME280;55930;47.412;8.790;2023-05-19T14:59:41;94695.59;;;14.31;77.88
68889;BME280;55930;47.412;8.790;2023-05-19T15:03:02;94696.69;;;14.07;78.48
68889;BME280;55930;47.412;8.790;2023-05-19T15:06:25;94698.06;;;13.55;82.41
68889;BME280;55930;47.412;8.790;2023-05-19T15:09:47;94699.38;;;13.70;81.75
68889;BME280;55930;47.412;8.790;2023-05-19T15:13:08;94699.44;;;13.82;82.52
68889;BME280;55930;47.412;8.790;2023-05-19T15:16:28;94699.69;;;13.84;82.17
68889;BME280;55930;47.412;8.790;2023-05-19T15:19:50;94697.44;;;13.71;82.50
68889;BME280;55930;47.412;8.790;2023-05-19T15:23:10;94695.81;;;13.79;82.93
68889;BME280;55930;47.412;8.790;2023-05-19T15:26:31;94698.75;;;13.87;82.20
68889;BME280;55930;47.412;8.790;2023-05-19T15:29:51;94702.38;;;13.47;84.18
68889;BME280;55930;47.412;8.790;2023-05-19T15:33:20;94693.00;;;13.57;85.25
68889;BME280;55930;47.412;8.790;2023-05-19T15:36:40;94698.13;;;13.34;85.71
68889;BME280;55930;47.412;8.790;2023-05-19T15:40:01;94700.81;;;13.09;86.24
68889;BME280;55930;47.412;8.790;2023-05-19T15:43:21;94702.81;;;12.93;87.44
68889;BME280;55930;47.412;8.790;2023-05-19T15:46:42;94697.91;;;13.32;85.87
68889;BME280;55930;47.412;8.790;2023-05-19T15:50:02;94703.13;;;13.21;87.83
68889;BME280;55930;47.412;8.790;2023-05-19T15:53:23;94696.09;;;12.98;86.67
68889;BME280;55930;47.412;8.790;2023-05-19T15:56:44;94697.41;;;13.34;86.81
68889;BME280;55930;47.412;8.790;2023-05-19T16:00:05;94694.94;;;13.04;87.55
68889;BME280;55930;47.412;8.790;2023-05-19T16:03:25;94701.22;;;13.01;89.03
68889;BME280;55930;47.412;8.790;2023-05-19T16:06:48;94690.16;;;13.09;87.86
68889;BME280;55930;47.412;8.790;2023-05-19T16:10:09;94681.44;;;13.08;88.04
68889;BME280;55930;47.412;8.790;2023-05-19T16:13:29;94679.00;;;13.10;87.04
68889;BME280;55930;47.412;8.790;2023-05-19T16:16:52;94676.22;;;13.19;86.93
68889;BME280;55930;47.412;8.790;2023-05-19T16:20:12;94672.63;;;13.22;85.98
68889;BME280;55930;47.412;8.790;2023-05-19T16:23:33;94665.44;;;13.34;87.89
68889;BME280;55930;47.412;8.790;2023-05-19T16:26:53;94666.69;;;13.38;86.46
68889;BME280;55930;47.412;8.790;2023-05-19T16:30:14;94664.50;;;13.11;88.24
68889;BME280;55930;47.412;8.790;2023-05-19T16:33:35;94667.31;;;13.28;88.92
68889;BME280;55930;47.412;8.790;2023-05-19T16:36:55;94664.41;;;13.26;88.07
68889;BME280;55930;47.412;8.790;2023-05-19T16:40:16;94664.22;;;13.09;89.39
68889;BME280;55930;47.412;8.790;2023-05-19T16:43:36;94668.28;;;12.99;90.71
68889;BME280;55930;47.412;8.790;2023-05-19T16:46:57;94674.97;;;12.89;90.40
68889;BME280;55930;47.412;8.790;2023-05-19T16:50:17;94668.41;;;12.84;90.34
68889;BME280;55930;47.412;8.790;2023-05-19T16:53:40;94664.88;;;12.73;91.70
68889;BME280;55930;47.412;8.790;2023-05-19T16:57:01;94660.38;;;12.58;91.57
68889;BME280;55930;47.412;8.790;2023-05-19T17:00:21;94656.69;;;12.50;91.21
68889;BME280;55930;47.412;8.790;2023-05-19T17:03:42;94658.91;;;12.57;91.17
68889;BME280;55930;47.412;8.790;2023-05-19T17:07:02;94664.13;;;12.46;91.95
68889;BME280;55930;47.412;8.790;2023-05-19T17:10:23;94666.66;;;12.35;92.98
68889;BME280;55930;47.412;8.790;2023-05-19T17:13:43;94663.25;;;12.14;93.16
68889;BME280;55930;47.412;8.790;2023-05-19T17:17:05;94667.78;;;12.08;93.91
68889;BME280;55930;47.412;8.790;2023-05-19T17:20:25;94671.84;;;12.04;93.16
68889;BME280;55930;47.412;8.790;2023-05-19T17:23:46;94678.97;;;12.12;93.93
68889;BME280;55930;47.412;8.790;2023-05-19T17:27:06;94681.31;;;12.05;93.58
68889;BME280;55930;47.412;8.790;2023-05-19T17:30:27;94687.81;;;12.04;93.81
68889;BME280;55930;47.412;8.790;2023-05-19T17:33:47;94686.88;;;12.07;92.38
68889;BME280;55930;47.412;8.790;2023-05-19T17:37:07;94695.00;;;11.83;93.50
68889;BME280;55930;47.412;8.790;2023-05-19T17:40:28;94693.19;;;11.89;94.50
68889;BME280;55930;47.412;8.790;2023-05-19T17:43:48;94685.22;;;11.74;94.62
68889;BME280;55930;47.412;8.790;2023-05-19T17:47:09;94691.50;;;11.92;94.30
68889;BME280;55930;47.412;8.790;2023-05-19T17:50:31;94681.94;;;11.65;94.85
68889;BME280;55930;47.412;8.790;2023-05-19T17:53:52;94683.38;;;11.66;96.63
68889;BME280;55930;47.412;8.790;2023-05-19T17:57:14;94686.59;;;11.70;96.19
68889;BME280;55930;47.412;8.790;2023-05-19T18:00:35;94689.63;;;11.63;96.51
68889;BME280;55930;47.412;8.790;2023-05-19T18:03:55;94687.50;;;11.67;96.43
68889;BME280;55930;47.412;8.790;2023-05-19T18:07:16;94690.84;;;11.47;97.32
68889;BME280;55930;47.412;8.790;2023-05-19T18:10:39;94689.19;;;11.49;97.63
68889;BME280;55930;47.412;8.790;2023-05-19T18:14:00;94699.09;;;11.49;98.21